createdAt,value
2022-10-20T05:23:11.802Z,3.80
2022-10-20T05:25:40.169Z,3.70
2022-10-20T05:28:08.655Z,3.60
2022-10-20T05:30:37.567Z,3.60
2022-10-20T05:33:06.190Z,3.70
2022-10-20T05:35:34.124Z,3.70
2022-10-20T05:38:02.093Z,3.70
2022-10-20T05:40:31.378Z,3.70
2022-10-20T05:42:59.422Z,3.70
2022-10-20T05:45:27.345Z,3.70
2022-10-20T05:47:55.256Z,3.70
2022-10-20T05:50:23.213Z,3.70
2022-10-20T12:10:35.966Z,15.50
2022-10-20T12:13:16.600Z,16.10
2022-10-20T12:15:49.088Z,16.50
2022-10-20T12:18:25.319Z,16.90
2022-10-20T12:20:56.391Z,17.10
2022-10-20T12:24:05.730Z,17.20
2022-10-20T12:27:07.064Z,17.50
2022-10-20T12:29:56.201Z,17.00
2022-10-20T12:32:45.433Z,16.50
2022-10-20T12:35:58.551Z,16.10
2022-10-20T12:38:28.017Z,15.90
2022-10-20T12:40:59.390Z,15.80
2022-10-20T12:43:35.465Z,15.60
2022-10-20T12:46:10.224Z,15.60
2022-10-20T12:48:45.545Z,15.50
2022-10-20T12:51:26.283Z,15.40
2022-10-20T12:53:58.605Z,15.50
2022-10-20T12:56:35.608Z,15.50
2022-10-20T12:59:40.392Z,15.70
2022-10-20T13:02:32.029Z,15.70
2022-10-20T13:05:03.048Z,15.80
2022-10-20T13:08:04.541Z,15.90
2022-10-20T13:10:35.000Z,16.00
2022-10-20T13:13:48.755Z,16.20
2022-10-20T13:16:22.421Z,16.50
2022-10-20T13:18:52.633Z,16.60
2022-10-20T13:21:32.506Z,16.80
2022-10-20T13:24:05.397Z,16.80
2022-10-20T13:26:39.215Z,17.20
2022-10-20T13:29:14.345Z,17.70
2022-10-20T13:31:50.864Z,18.20
2022-10-20T13:34:26.039Z,18.60
2022-10-20T13:37:07.256Z,18.90
2022-10-20T13:39:47.424Z,18.90
2022-10-20T13:42:30.934Z,18.30
2022-10-20T13:45:06.947Z,18.20
2022-10-20T13:47:50.092Z,18.00
2022-10-20T13:50:22.176Z,17.70
2022-10-20T13:52:54.341Z,17.50
2022-10-20T13:55:24.947Z,17.30
2022-10-20T13:57:55.485Z,17.00
2022-10-20T14:00:26.064Z,17.10
2022-10-20T14:02:59.637Z,17.00
2022-10-20T14:05:29.904Z,17.20
2022-10-20T14:08:04.590Z,17.30
2022-10-20T14:10:40.099Z,17.60
2022-10-20T14:13:10.229Z,18.20
2022-10-20T14:15:38.724Z,18.30
2022-10-20T14:18:19.429Z,18.20
2022-10-20T14:20:56.689Z,18.20
2022-10-20T14:23:26.050Z,18.10
2022-10-20T14:25:54.817Z,17.60
2022-10-20T14:28:25.154Z,17.50
2022-10-20T14:30:53.640Z,17.30
2022-10-20T14:33:23.382Z,17.10
2022-10-20T14:35:54.652Z,17.00
2022-10-20T14:38:26.666Z,17.00
2022-10-20T14:40:56.939Z,17.00
2022-10-20T14:43:35.171Z,16.70
2022-10-20T14:46:04.825Z,16.30
2022-10-20T14:48:39.126Z,16.10
2022-10-20T15:04:48.942Z,14.70
2022-10-20T15:07:20.206Z,14.70
2022-10-20T16:08:23.066Z,11.60
2022-10-20T16:10:51.118Z,11.50
2022-10-20T16:13:21.116Z,11.40
2022-10-20T16:15:49.081Z,11.30
2022-10-20T16:18:17.066Z,11.30
2022-10-20T16:20:45.063Z,11.20
2022-10-20T16:23:13.085Z,11.10
2022-10-20T16:25:42.699Z,11.10
2022-10-20T16:28:11.583Z,11.00
2022-10-20T16:30:39.544Z,11.00
2022-10-20T16:33:07.830Z,11.00
2022-10-20T16:35:35.847Z,10.90
2022-10-20T16:38:03.942Z,10.80
2022-10-20T16:40:31.903Z,10.80
2022-10-20T16:43:02.386Z,10.80
2022-10-20T16:45:30.531Z,10.80
2022-10-20T16:47:58.631Z,10.70
2022-10-20T16:50:26.777Z,10.60
2022-10-20T16:52:54.843Z,10.60
2022-10-20T16:55:22.887Z,10.60
2022-10-20T16:57:51.830Z,10.60
2022-10-20T17:00:21.552Z,10.50
2022-10-20T17:02:49.480Z,10.50
2022-10-20T17:05:19.679Z,10.40
2022-10-20T17:07:47.776Z,10.40
2022-10-20T17:10:15.871Z,10.40
2022-10-20T17:12:44.382Z,10.30
2022-10-20T17:15:13.095Z,10.30
2022-10-20T17:17:42.552Z,10.30
2022-10-20T17:20:11.593Z,10.10
2022-10-20T17:22:39.839Z,10.00
